Time;durP1;ratioP1;P1;durP2;ratioP2;P2;SDS_P1;SDS_P2;PMS_P1;PMS_P2;Temp;Humidity;BMP_temperature;BMP_pressure;BME280_temperature;BME280_humidity;BME280_pressure;Samples;Min_cycle;Max_cycle;Signal;HPM_P1;HPM_P2
2021/10/17 00:00:12;;;;;;;17.20;15.18;;;;;;;18.15;40.72;94668.09;5053767;28;20048;-65
2021/10/17 00:02:40;;;;;;;7.07;6.38;;;;;;;18.12;41.37;94669.53;5053502;28;20443;-58
2021/10/17 00:05:09;;;;;;;7.55;6.35;;;;;;;18.27;40.80;94670.78;5054210;28;20408;-57
2021/10/17 00:07:41;;;;;;;6.68;6.07;;;;;;;17.98;41.39;94673.56;5052245;28;20617;-60
2021/10/17 00:10:10;;;;;;;7.18;6.53;;;;;;;18.33;40.38;94674.78;5053786;28;20059;-48
2021/10/17 00:12:38;;;;;;;7.63;6.93;;;;;;;18.24;40.86;94676.75;5052676;28;20363;-58
2021/10/17 00:15:07;;;;;;;7.75;6.47;;;;;;;18.18;40.81;94678.03;5053105;28;20060;-47
2021/10/17 00:17:35;;;;;;;8.27;6.78;;;;;;;18.38;40.42;94677.22;5051669;28;20045;-48
2021/10/17 00:20:05;;;;;;;8.05;7.10;;;;;;;17.86;41.47;94676.91;5053614;28;20053;-62
2021/10/17 00:22:32;;;;;;;7.75;7.00;;;;;;;18.54;40.25;94673.94;5053228;28;20049;-65
2021/10/17 00:24:59;;;;;;;7.93;7.20;;;;;;;18.10;41.02;94682.31;5053261;28;20059;-60
2021/10/17 00:27:26;;;;;;;8.95;8.05;;;;;;;18.03;41.14;94681.28;5053451;28;20048;-48
2021/10/17 00:29:53;;;;;;;8.48;7.68;;;;;;;18.67;39.66;94672.88;5035897;28;20510;-48
2021/10/17 00:32:20;;;;;;;8.82;7.95;;;;;;;18.30;40.62;94675.44;5053158;28;20057;-48
2021/10/17 00:34:47;;;;;;;8.45;7.63;;;;;;;18.14;41.05;94666.56;5035706;28;20447;-55
2021/10/17 00:37:17;;;;;;;9.60;8.65;;;;;;;17.99;41.22;94675.13;5052510;28;20056;-47
2021/10/17 00:39:44;;;;;;;9.45;8.50;;;;;;;18.27;40.66;94681.38;5035694;28;20045;-50
2021/10/17 00:42:12;;;;;;;10.45;8.55;;;;;;;18.18;40.98;94667.44;5052969;28;20037;-61
2021/10/17 00:44:41;;;;;;;9.05;8.15;;;;;;;18.27;40.63;94676.09;5052829;28;20051;-51
2021/10/17 00:47:08;;;;;;;8.80;8.00;;;;;;;18.08;41.00;94679.22;5035508;28;20045;-64
2021/10/17 00:49:35;;;;;;;11.60;10.43;;;;;;;18.13;41.36;94680.88;5052540;28;20060;-64
2021/10/17 00:52:02;;;;;;;14.20;12.75;;;;;;;18.23;41.01;94680.50;5052780;28;20051;-50
2021/10/17 00:54:29;;;;;;;10.40;9.30;;;;;;;18.30;40.50;94680.72;5053246;28;20044;-49
2021/10/17 00:56:56;;;;;;;9.52;8.40;;;;;;;17.85;41.67;94683.31;5034638;28;20055;-51
2021/10/17 00:59:23;;;;;;;10.05;9.05;;;;;;;17.83;41.55;94680.97;5052512;28;20063;-47
2021/10/17 01:01:51;;;;;;;8.93;8.13;;;;;;;17.87;41.77;94689.81;5034940;28;20474;-49
2021/10/17 01:04:18;;;;;;;10.27;9.32;;;;;;;17.82;41.84;94682.09;5052920;28;20047;-50
2021/10/17 01:06:45;;;;;;;9.82;8.82;;;;;;;17.76;41.80;94686.03;5052681;28;20053;-54
2021/10/17 01:09:12;;;;;;;10.35;8.82;;;;;;;18.01;41.29;94684.25;5034888;28;20052;-47
2021/10/17 01:11:42;;;;;;;9.93;8.98;;;;;;;17.99;41.05;94685.69;5033522;28;20049;-49
2021/10/17 01:14:14;;;;;;;9.85;8.30;;;;;;;18.22;40.45;94673.66;5013449;28;20076;-49
2021/10/17 01:16:41;;;;;;;8.95;8.07;;;;;;;17.94;41.52;94681.34;5013065;28;20068;-64
2021/10/17 01:19:08;;;;;;;9.82;8.93;;;;;;;17.98;41.26;94673.56;5003717;28;20053;-68
2021/10/17 01:21:38;;;;;;;9.38;8.48;;;;;;;18.32;40.47;94678.53;5014272;28;20065;-47
2021/10/17 01:24:06;;;;;;;9.55;8.65;;;;;;;18.26;40.20;94679.84;5012651;28;20829;-48
2021/10/17 01:26:34;;;;;;;10.38;9.38;;;;;;;17.98;41.19;94676.22;5011986;28;20049;-55
2021/10/17 01:29:01;;;;;;;9.63;8.73;;;;;;;18.01;40.97;94673.69;5012989;28;20060;-63
2021/10/17 01:31:35;;;;;;;10.43;9.43;;;;;;;18.03;40.79;94676.00;5011461;28;20377;-50
2021/10/17 01:34:05;;;;;;;10.15;9.15;;;;;;;18.06;41.13;94676.13;5012363;28;20049;-47
2021/10/17 01:36:33;;;;;;;10.18;9.18;;;;;;;18.04;41.12;94672.25;5011639;28;20054;-48
2021/10/17 01:39:02;;;;;;;9.40;8.50;;;;;;;18.02;41.36;94675.22;5012326;28;20062;-48
2021/10/17 01:41:29;;;;;;;10.00;9.00;;;;;;;18.19;40.73;94666.34;5008206;28;20046;-68
2021/10/17 01:44:11;;;;;;;10.02;9.07;;;;;;;18.05;41.04;94679.09;5017825;28;20049;-48
2021/10/17 01:46:39;;;;;;;9.85;8.95;;;;;;;18.06;41.17;94670.06;5024984;28;20053;-48
2021/10/17 01:49:07;;;;;;;9.98;9.07;;;;;;;18.09;40.77;94674.69;4993446;28;20068;-49
2021/10/17 01:51:41;;;;;;;11.20;10.10;;;;;;;18.00;41.08;94661.56;5027618;28;20045;-49
2021/10/17 01:54:09;;;;;;;10.57;9.10;;;;;;;17.82;41.08;94668.84;5012113;28;20045;-48
2021/10/17 01:56:37;;;;;;;10.05;9.05;;;;;;;17.87;41.38;94673.94;5015886;28;20046;-50
2021/10/17 01:59:06;;;;;;;11.40;9.95;;;;;;;17.73;41.74;94675.31;5015694;28;20050;-65
2021/10/17 02:01:44;;;;;;;11.43;10.32;;;;;;;17.92;41.29;94666.91;5015393;28;20046;-56
2021/10/17 02:04:12;;;;;;;12.15;9.90;;;;;;;17.92;41.31;94664.25;5014941;28;20049;-68
2021/10/17 02:06:39;;;;;;;11.50;10.40;;;;;;;17.86;41.25;94666.34;5003784;28;20042;-62
2021/10/17 02:09:06;;;;;;;11.60;10.50;;;;;;;17.96;41.29;94665.19;4995594;28;20049;-48
2021/10/17 02:11:34;;;;;;;11.27;10.18;;;;;;;18.01;41.12;94667.63;5013814;28;20049;-48
2021/10/17 02:14:04;;;;;;;11.05;9.95;;;;;;;17.84;41.65;94664.00;5026126;28;20064;-65
2021/10/17 02:16:32;;;;;;;11.80;10.60;;;;;;;17.82;41.60;94660.94;5035979;28;20053;-65
2021/10/17 02:18:59;;;;;;;11.18;10.07;;;;;;;17.58;41.99;94660.78;5034928;28;20052;-67
2021/10/17 02:21:27;;;;;;;12.60;10.77;;;;;;;17.77;41.08;94668.28;5031058;28;20049;-68
2021/10/17 02:23:54;;;;;;;11.90;10.70;;;;;;;17.79;41.61;94658.94;5031538;28;20507;-67
2021/10/17 02:26:23;;;;;;;11.63;10.45;;;;;;;18.00;40.89;94666.06;5028755;28;20058;-50
2021/10/17 02:29:16;;;;;;;11.85;10.75;;;;;;;18.16;40.46;94664.34;5033465;28;20053;-51
2021/10/17 02:32:06;;;;;;;11.48;10.38;;;;;;;17.90;41.30;94679.69;5016617;28;20379;-50
2021/10/17 02:34:33;;;;;;;13.65;10.85;;;;;;;17.99;41.31;94669.81;5034652;28;20060;-50
2021/10/17 02:37:01;;;;;;;11.38;10.27;;;;;;;18.29;40.50;94671.25;5034303;28;20045;-49
2021/10/17 02:39:28;;;;;;;11.80;10.70;;;;;;;18.20;40.71;94670.53;5035431;28;20045;-64
2021/10/17 02:41:55;;;;;;;12.07;10.88;;;;;;;18.14;40.55;94671.84;5034207;28;20049;-60
2021/10/17 02:44:27;;;;;;;12.80;11.50;;;;;;;18.21;40.78;94673.94;5034163;28;20056;-50
2021/10/17 02:46:54;;;;;;;11.88;10.65;;;;;;;18.02;41.49;94685.03;5035333;28;20053;-57
2021/10/17 02:49:21;;;;;;;11.95;10.73;;;;;;;18.08;41.20;94689.03;5033347;28;20340;-56
2021/10/17 02:51:48;;;;;;;11.55;10.35;;;;;;;18.34;40.95;94686.91;5034500;28;20049;-58
2021/10/17 02:54:17;;;;;;;12.57;11.27;;;;;;;18.36;40.24;94684.69;5034665;28;20072;-55
2021/10/17 02:56:46;;;;;;;12.05;10.85;;;;;;;18.19;40.78;94685.63;5034019;28;20449;-66
2021/10/17 02:59:16;;;;;;;12.25;11.05;;;;;;;18.06;41.34;94692.00;5034360;28;20049;-69
2021/10/17 03:01:43;;;;;;;11.52;10.43;;;;;;;18.03;40.92;94689.22;5033251;28;20049;-69
2021/10/17 03:04:10;;;;;;;12.32;11.05;;;;;;;18.15;40.70;94689.25;5035090;28;20360;-71
2021/10/17 03:06:37;;;;;;;11.65;10.52;;;;;;;18.27;40.70;94689.31;5022618;28;20374;-69
2021/10/17 03:09:05;;;;;;;11.60;10.45;;;;;;;18.42;40.42;94691.31;5014558;28;20056;-65
2021/10/17 03:11:33;;;;;;;11.85;10.65;;;;;;;18.42;39.77;94683.38;5031380;28;20053;-59
2021/10/17 03:14:02;;;;;;;12.07;10.80;;;;;;;18.23;40.51;94680.50;5033540;28;20076;-48
2021/10/17 03:16:33;;;;;;;12.32;11.13;;;;;;;18.15;40.70;94683.97;5030406;28;20046;-66
2021/10/17 03:19:00;;;;;;;12.38;11.10;;;;;;;18.25;40.64;94694.16;5042136;28;20050;-65
2021/10/17 03:21:28;;;;;;;11.75;10.65;;;;;;;18.49;39.97;94686.28;5033630;28;20052;-62
2021/10/17 03:23:56;;;;;;;11.95;10.35;;;;;;;18.23;40.84;94683.13;5034062;28;20614;-65
2021/10/17 03:26:23;;;;;;;11.57;10.43;;;;;;;18.26;41.04;94687.78;5033895;28;20045;-47
2021/10/17 03:28:50;;;;;;;12.68;10.60;;;;;;;18.04;41.10;94688.13;5033558;28;20360;-47
2021/10/17 03:31:18;;;;;;;11.90;10.70;;;;;;;18.18;40.61;94684.09;5033243;28;20045;-61
2021/10/17 03:33:47;;;;;;;11.50;10.38;;;;;;;18.37;40.34;94680.94;5033550;28;20359;-68
2021/10/17 03:36:17;;;;;;;11.10;9.95;;;;;;;18.52;40.04;94681.44;5032534;28;20049;-65
2021/10/17 03:38:45;;;;;;;11.55;10.35;;;;;;;19.30;37.94;94694.53;5021978;28;20054;-67
2021/10/17 03:41:13;;;;;;;10.95;9.95;;;;;;;18.92;38.77;94686.91;5047251;28;20045;-57
2021/10/17 03:43:45;;;;;;;10.48;9.57;;;;;;;18.43;40.46;94684.16;5033254;28;20053;-63
2021/10/17 03:46:15;;;;;;;11.57;10.48;;;;;;;18.23;40.91;94696.38;5020102;28;20041;-62
2021/10/17 03:48:44;;;;;;;11.88;10.68;;;;;;;18.75;39.31;94686.03;5013483;28;20370;-67
2021/10/17 03:51:16;;;;;;;11.38;10.27;;;;;;;18.30;40.34;94688.66;5047831;28;20049;-58
2021/10/17 03:53:44;;;;;;;10.93;9.85;;;;;;;18.28;40.68;94698.81;5033054;28;20416;-64
2021/10/17 03:56:11;;;;;;;11.93;10.70;;;;;;;18.86;39.02;94689.00;5035206;28;20042;-60
2021/10/17 03:58:39;;;;;;;12.05;10.95;;;;;;;18.65;39.64;94690.97;5019776;28;20049;-61
2021/10/17 04:01:06;;;;;;;12.18;10.93;;;;;;;18.45;40.46;94690.66;5030389;28;20042;-47
2021/10/17 04:03:33;;;;;;;11.73;10.52;;;;;;;18.88;39.09;94691.34;5033178;28;20060;-48
2021/10/17 04:06:00;;;;;;;11.82;10.73;;;;;;;18.97;38.62;94692.75;5033052;28;20045;-67
2021/10/17 04:08:28;;;;;;;11.73;10.55;;;;;;;18.93;38.99;94691.09;5033065;28;20061;-62
2021/10/17 04:10:55;;;;;;;12.57;11.35;;;;;;;18.26;40.50;94689.66;5028927;28;20045;-48
2021/10/17 04:13:22;;;;;;;12.32;11.18;;;;;;;18.20;40.76;94699.63;5020854;28;20049;-60
2021/10/17 04:15:49;;;;;;;13.95;12.55;;;;;;;18.63;40.05;94687.88;5032439;28;20045;-47
2021/10/17 04:18:16;;;;;;;12.75;11.40;;;;;;;18.78;39.84;94695.19;5032424;28;20042;-47
2021/10/17 04:20:44;;;;;;;14.85;13.25;;;;;;;18.69;39.48;94692.63;5028441;28;20049;-47
2021/10/17 04:23:11;;;;;;;14.38;12.80;;;;;;;18.44;40.01;94691.00;5029487;28;20050;-48
2021/10/17 04:25:38;;;;;;;13.80;12.50;;;;;;;18.77;39.37;94699.72;5012859;28;20045;-49
2021/10/17 04:28:09;;;;;;;13.77;12.38;;;;;;;18.20;40.78;94702.28;5013068;28;20375;-66
2021/10/17 04:30:36;;;;;;;14.75;13.30;;;;;;;19.00;38.81;94708.03;5023650;28;20053;-49
2021/10/17 04:33:03;;;;;;;13.77;12.45;;;;;;;18.71;39.74;94694.94;5031799;28;20045;-47
2021/10/17 04:35:35;;;;;;;14.88;13.05;;;;;;;18.44;40.55;94691.00;5029627;28;20053;-48
2021/10/17 04:38:05;;;;;;;16.03;13.70;;;;;;;18.07;41.24;94708.63;5014110;28;20341;-47
2021/10/17 04:40:32;;;;;;;15.65;13.98;;;;;;;18.67;39.68;94709.94;5019561;28;20292;-47
2021/10/17 04:43:00;;;;;;;16.05;14.45;;;;;;;18.38;40.52;94711.63;5018265;28;20045;-53
2021/10/17 04:45:28;;;;;;;15.90;14.25;;;;;;;18.15;40.18;94710.44;5032616;28;20056;-48
2021/10/17 04:47:55;;;;;;;15.50;14.00;;;;;;;18.69;39.50;94708.50;5033372;28;20045;-47
2021/10/17 04:50:22;;;;;;;16.80;15.00;;;;;;;18.42;39.45;94711.72;5032878;28;20056;-49
2021/10/17 04:52:49;;;;;;;16.45;14.75;;;;;;;18.64;39.33;94707.97;5032575;28;20085;-48
2021/10/17 04:55:16;;;;;;;16.80;15.07;;;;;;;18.45;39.63;94717.13;5032911;28;20049;-55
2021/10/17 04:57:47;;;;;;;15.90;14.30;;;;;;;18.18;40.18;94723.00;5032099;28;20045;-63
2021/10/17 05:00:14;;;;;;;15.25;13.75;;;;;;;19.20;38.28;94730.19;5031608;28;20384;-66
2021/10/17 05:02:54;;;;;;;16.48;14.32;;;;;;;18.47;40.14;94722.88;5032119;28;20768;-67
2021/10/17 05:05:22;;;;;;;17.95;16.15;;;;;;;18.59;39.66;94729.31;5032081;28;20380;-70
2021/10/17 05:07:49;;;;;;;16.88;15.07;;;;;;;18.51;39.95;94736.25;5032226;28;20057;-68
2021/10/17 05:10:17;;;;;;;17.95;15.40;;;;;;;18.11;40.57;94736.75;5028000;28;20049;-49
2021/10/17 05:12:45;;;;;;;17.85;15.95;;;;;;;18.08;41.13;94731.34;5015026;28;20057;-66
2021/10/17 05:15:12;;;;;;;17.15;15.48;;;;;;;18.18;40.61;94738.88;5035135;28;20375;-66
2021/10/17 05:17:39;;;;;;;17.58;15.77;;;;;;;18.05;41.10;94737.28;5035137;28;20443;-63
2021/10/17 05:20:06;;;;;;;17.30;15.50;;;;;;;18.55;40.56;94750.38;5034574;28;20055;-65
2021/10/17 05:22:35;;;;;;;18.80;16.80;;;;;;;18.61;39.23;94745.66;5035036;28;20060;-62
2021/10/17 05:25:03;;;;;;;18.80;16.80;;;;;;;18.52;40.13;94742.31;5035163;28;20048;-62
2021/10/17 05:27:31;;;;;;;17.42;15.73;;;;;;;19.01;38.73;94740.59;5052666;28;20048;-54
2021/10/17 05:29:58;;;;;;;18.83;16.92;;;;;;;19.07;38.86;94745.34;5033602;28;20064;-53
2021/10/17 05:32:27;;;;;;;19.40;17.40;;;;;;;19.18;38.13;94748.31;5035196;28;20056;-51
2021/10/17 05:34:54;;;;;;;19.27;17.38;;;;;;;18.88;38.81;94753.03;5035212;28;20044;-66
2021/10/17 05:37:21;;;;;;;20.23;18.13;;;;;;;18.63;39.05;94754.06;5051600;28;20079;-56
2021/10/17 05:39:48;;;;;;;18.65;16.67;;;;;;;19.23;37.92;94747.31;5034660;28;20665;-65
2021/10/17 05:42:16;;;;;;;19.08;16.35;;;;;;;19.66;37.15;94754.72;5025790;28;20060;-49
2021/10/17 05:44:44;;;;;;;18.38;16.48;;;;;;;18.88;39.22;94763.63;5050455;28;20048;-49
2021/10/17 05:47:12;;;;;;;18.73;16.83;;;;;;;19.09;38.57;94750.31;5033753;28;20116;-49
2021/10/17 05:49:39;;;;;;;18.23;16.42;;;;;;;18.85;39.20;94766.16;5034503;28;20060;-48
2021/10/17 05:52:06;;;;;;;21.02;18.50;;;;;;;18.57;40.03;94774.66;5034178;28;20474;-63
2021/10/17 05:54:34;;;;;;;19.80;17.80;;;;;;;18.86;38.82;94765.81;5028023;28;20049;-47
2021/10/17 05:57:02;;;;;;;20.38;18.23;;;;;;;18.71;39.36;94777.03;5034721;28;20060;-66
2021/10/17 05:59:29;;;;;;;21.85;18.52;;;;;;;18.47;40.05;94775.81;5035029;28;20056;-56
2021/10/17 06:01:56;;;;;;;22.33;19.70;;;;;;;18.28;40.66;94778.19;5052076;28;20056;-65
2021/10/17 06:04:30;;;;;;;20.15;18.05;;;;;;;18.61;39.77;94780.06;5035020;28;20055;-69
2021/10/17 06:07:11;;;;;;;19.85;17.85;;;;;;;18.42;40.13;94781.31;5031392;28;20072;-69
2021/10/17 06:09:40;;;;;;;21.67;18.77;;;;;;;18.39;39.84;94783.84;5031644;28;20045;-67
2021/10/17 06:12:08;;;;;;;20.77;18.65;;;;;;;18.49;40.28;94789.53;5031070;28;20045;-49
2021/10/17 06:14:37;;;;;;;20.88;18.65;;;;;;;18.52;40.09;94787.34;5046164;28;20057;-67
2021/10/17 06:17:05;;;;;;;23.25;20.50;;;;;;;18.44;40.62;94786.28;5029393;28;20370;-66
2021/10/17 06:19:32;;;;;;;21.55;19.33;;;;;;;18.45;40.14;94787.84;5034366;28;20467;-68
2021/10/17 06:22:06;;;;;;;23.25;18.95;;;;;;;18.21;40.87;94791.16;5024585;28;20452;-68
2021/10/17 06:24:39;;;;;;;22.73;19.25;;;;;;;18.42;41.04;94794.56;5014779;28;20052;-68
2021/10/17 06:27:06;;;;;;;21.60;19.30;;;;;;;18.61;40.23;94788.78;4998550;28;20045;-68
2021/10/17 06:29:35;;;;;;;22.25;19.65;;;;;;;18.45;40.84;94788.63;5014465;28;20049;-67
2021/10/17 06:32:05;;;;;;;22.25;19.85;;;;;;;18.62;39.68;94793.00;5050450;28;20049;-46
2021/10/17 06:34:35;;;;;;;21.67;19.25;;;;;;;18.84;39.74;94799.81;5033881;28;20052;-47
2021/10/17 06:37:03;;;;;;;23.63;20.73;;;;;;;18.75;40.75;94797.25;5049999;28;20044;-47
2021/10/17 06:39:30;;;;;;;21.38;19.17;;;;;;;19.03;40.17;94802.75;5029908;28;20053;-49
2021/10/17 06:41:58;;;;;;;22.10;19.70;;;;;;;19.02;39.51;94793.25;5033481;28;20041;-45
2021/10/17 06:44:45;;;;;;;20.55;18.45;;;;;;;18.99;39.83;94809.00;5052895;28;20045;-53
2021/10/17 06:47:12;;;;;;;21.27;17.48;;;;;;;19.06;39.29;94796.78;5035920;28;20053;-50
2021/10/17 06:49:39;;;;;;;20.65;18.45;;;;;;;19.09;39.66;94795.34;5035106;28;20045;-45
2021/10/17 06:52:10;;;;;;;20.42;18.33;;;;;;;19.16;39.62;94805.41;5050216;28;20048;-49
2021/10/17 06:54:37;;;;;;;18.15;16.20;;;;;;;18.96;39.72;94807.78;5028451;28;20052;-46
2021/10/17 06:57:05;;;;;;;17.98;16.00;;;;;;;18.68;40.10;94798.88;5030749;28;20757;-45
2021/10/17 06:59:32;;;;;;;18.33;16.42;;;;;;;19.16;39.19;94800.88;5027566;28;20068;-48
2021/10/17 07:02:00;;;;;;;18.40;16.05;;;;;;;19.24;38.95;94804.50;5030834;28;20049;-45
2021/10/17 07:04:28;;;;;;;21.10;16.70;;;;;;;19.17;39.19;94810.38;5025801;28;20048;-52
2021/10/17 07:06:57;;;;;;;17.90;15.60;;;;;;;19.60;38.73;94812.53;5021607;28;20041;-53
2021/10/17 07:09:24;;;;;;;18.25;15.98;;;;;;;19.54;38.62;94808.56;5023161;28;20052;-45
2021/10/17 07:12:00;;;;;;;17.10;15.30;;;;;;;19.55;38.72;94804.81;5031083;28;20490;-48
2021/10/17 07:14:30;;;;;;;17.67;15.00;;;;;;;19.80;38.32;94812.75;5027148;28;20041;-52
2021/10/17 07:17:26;;;;;;;19.02;16.95;;;;;;;19.78;38.87;94813.09;5011136;28;20058;-45
2021/10/17 07:19:53;;;;;;;18.83;16.85;;;;;;;20.06;38.55;94815.81;5017402;28;21336;-45
2021/10/17 07:22:20;;;;;;;17.15;15.38;;;;;;;20.07;37.43;94814.69;5030554;28;20045;-45
2021/10/17 07:24:50;;;;;;;17.27;15.48;;;;;;;20.49;37.12;94825.00;5033065;28;20049;-46
2021/10/17 07:27:18;;;;;;;19.50;17.35;;;;;;;19.83;38.10;94822.69;5034925;28;20448;-47
2021/10/17 07:29:47;;;;;;;20.00;16.67;;;;;;;19.75;38.84;94834.94;5033622;28;20049;-52
2021/10/17 07:32:15;;;;;;;19.90;17.15;;;;;;;19.86;37.84;94829.97;5032910;28;20041;-46
2021/10/17 07:34:42;;;;;;;19.85;17.13;;;;;;;19.63;38.75;94830.44;5031217;28;20064;-54
2021/10/17 07:37:14;;;;;;;19.73;17.63;;;;;;;19.77;38.28;94835.38;5024654;28;20057;-49
2021/10/17 07:39:41;;;;;;;19.77;17.67;;;;;;;19.54;38.34;94832.44;5046711;28;20490;-46
2021/10/17 07:42:08;;;;;;;19.90;17.80;;;;;;;19.67;39.26;94835.84;5049432;28;20359;-45
2021/10/17 07:44:37;;;;;;;20.05;17.73;;;;;;;19.81;38.73;94835.53;5028086;28;20054;-41
2021/10/17 07:47:17;;;;;;;20.35;17.98;;;;;;;19.77;38.33;94837.25;5031993;28;20057;-41
2021/10/17 07:49:57;;;;;;;19.05;17.02;;;;;;;19.77;37.99;94834.63;5031460;28;20057;-39
2021/10/17 07:52:29;;;;;;;19.05;16.75;;;;;;;19.96;37.39;94832.16;5030251;28;20052;-46
2021/10/17 07:54:56;;;;;;;18.50;16.55;;;;;;;20.32;37.90;94837.44;5020519;28;20064;-47
2021/10/17 07:57:51;;;;;;;17.70;15.82;;;;;;;20.32;38.06;94829.47;5031215;28;20045;-46
2021/10/17 08:00:21;;;;;;;17.52;15.40;;;;;;;20.68;36.73;94841.09;5031405;28;20375;-47
2021/10/17 08:03:21;;;;;;;18.45;15.45;;;;;;;21.26;36.79;94833.50;4993463;28;20065;-52
2021/10/17 08:06:00;;;;;;;15.75;14.15;;;;;;;20.87;36.47;94821.88;5019182;28;20046;-47
2021/10/17 08:08:28;;;;;;;15.32;13.65;;;;;;;20.84;36.22;94823.31;5018321;28;20053;-48
2021/10/17 08:10:56;;;;;;;15.88;14.20;;;;;;;20.51;36.71;94836.81;5025038;28;20056;-44
2021/10/17 08:13:25;;;;;;;18.65;16.00;;;;;;;20.75;36.54;94825.34;5020252;28;20376;-50
2021/10/17 08:15:58;;;;;;;17.30;14.82;;;;;;;20.90;36.21;94827.28;4997354;28;20487;-46
2021/10/17 08:18:26;;;;;;;13.93;11.90;;;;;;;20.65;36.36;94833.03;5019046;28;20060;-53
2021/10/17 08:20:58;;;;;;;15.85;14.18;;;;;;;20.71;37.38;94826.38;5007241;28;20065;-51
2021/10/17 08:23:25;;;;;;;16.77;14.90;;;;;;;20.82;37.00;94827.44;5004002;28;20042;-52
2021/10/17 08:25:53;;;;;;;15.50;13.80;;;;;;;20.65;36.20;94827.72;5003611;28;20053;-55
2021/10/17 08:28:20;;;;;;;18.05;13.85;;;;;;;21.69;35.13;94821.25;5013025;28;20432;-46
2021/10/17 08:30:50;;;;;;;15.75;13.90;;;;;;;21.83;36.39;94827.66;5012436;28;20360;-50
2021/10/17 08:33:18;;;;;;;13.38;11.98;;;;;;;21.43;36.81;94830.53;5012398;28;20056;-61
2021/10/17 08:35:45;;;;;;;14.70;12.13;;;;;;;21.19;35.21;94833.31;5011710;28;20050;-57
2021/10/17 08:38:15;;;;;;;15.05;13.45;;;;;;;21.36;35.74;94826.94;5002750;28;20456;-50
2021/10/17 08:40:52;;;;;;;14.68;13.13;;;;;;;21.61;35.83;94828.31;4996173;28;20053;-56
2021/10/17 08:43:23;;;;;;;16.23;13.65;;;;;;;21.33;35.83;94828.38;5001092;28;20061;-52
2021/10/17 08:46:05;;;;;;;14.20;12.73;;;;;;;20.90;36.30;94821.97;5003822;28;20060;-48
2021/10/17 08:48:43;;;;;;;16.52;13.43;;;;;;;21.39;35.87;94828.91;4997431;28;20046;-59
2021/10/17 08:51:10;;;;;;;13.25;11.85;;;;;;;21.27;35.63;94827.09;4995818;28;20037;-51
2021/10/17 08:53:53;;;;;;;14.60;12.50;;;;;;;21.52;35.07;94820.47;5009014;28;20050;-57
2021/10/17 08:56:25;;;;;;;16.23;13.70;;;;;;;21.13;35.67;94822.16;5005087;28;20046;-52
2021/10/17 08:59:13;;;;;;;12.23;11.02;;;;;;;21.42;36.47;94825.56;4996527;28;20470;-64
2021/10/17 09:01:48;;;;;;;12.90;10.90;;;;;;;21.13;34.65;94830.16;5002130;28;20061;-55
2021/10/17 09:04:17;;;;;;;13.60;12.25;;;;;;;21.21;35.05;94833.75;4999379;28;20053;-57
2021/10/17 09:07:19;;;;;;;10.55;9.45;;;;;;;21.19;36.05;94828.00;5000921;28;20053;-53
2021/10/17 09:10:16;;;;;;;11.38;10.18;;;;;;;21.84;34.28;94823.09;5000456;28;20050;-54
2021/10/17 09:12:48;;;;;;;11.07;9.98;;;;;;;22.04;35.02;94823.97;5002530;28;20065;-49
2021/10/17 09:15:33;;;;;;;12.52;11.23;;;;;;;21.59;36.05;94819.88;5038680;28;20076;-56
2021/10/17 09:18:22;;;;;;;14.65;12.93;;;;;;;22.17;34.67;94830.72;5040594;28;20052;-56
2021/10/17 09:21:03;;;;;;;11.10;9.93;;;;;;;21.22;36.62;94833.41;5029323;28;20049;-56
2021/10/17 09:23:33;;;;;;;9.85;8.85;;;;;;;21.12;35.46;94827.84;5042797;28;20045;-59
2021/10/17 09:26:08;;;;;;;14.73;10.30;;;;;;;21.43;36.31;94822.56;5041231;28;20049;-58
2021/10/17 09:28:35;;;;;;;11.65;10.55;;;;;;;21.43;35.46;94817.22;5039142;28;20063;-61
2021/10/17 09:31:12;;;;;;;12.27;9.93;;;;;;;21.42;35.94;94818.34;5047135;28;20041;-50
2021/10/17 09:33:42;;;;;;;11.95;10.60;;;;;;;21.27;36.27;94813.78;5051326;28;20056;-49
2021/10/17 09:36:31;;;;;;;9.55;8.55;;;;;;;21.50;36.28;94812.06;5034662;28;20052;-58
2021/10/17 09:39:32;;;;;;;11.02;9.73;;;;;;;21.40;36.12;94817.94;5006311;28;20045;-59
2021/10/17 09:42:22;;;;;;;11.85;9.90;;;;;;;21.38;36.50;94819.38;5052492;28;20060;-66
2021/10/17 09:45:04;;;;;;;12.57;10.23;;;;;;;21.26;35.75;94817.56;5017183;28;20051;-54
2021/10/17 09:47:40;;;;;;;14.93;12.27;;;;;;;21.57;35.04;94816.00;5037249;28;20056;-52
2021/10/17 09:50:18;;;;;;;13.23;11.82;;;;;;;21.28;36.01;94814.56;5052236;28;20048;-60
2021/10/17 09:53:09;;;;;;;14.45;12.35;;;;;;;21.22;37.02;94806.03;5052159;28;20788;-60
2021/10/17 09:55:36;;;;;;;14.30;12.02;;;;;;;21.13;36.38;94810.75;5038103;28;20068;-61
2021/10/17 09:58:05;;;;;;;13.65;11.82;;;;;;;21.26;36.78;94803.50;5032885;28;20044;-59
2021/10/17 10:00:38;;;;;;;14.88;13.27;;;;;;;21.48;36.03;94816.19;5047496;28;20049;-62
2021/10/17 10:03:08;;;;;;;15.45;13.32;;;;;;;21.37;36.86;94807.97;5052162;28;20064;-59
2021/10/17 10:05:35;;;;;;;14.13;12.63;;;;;;;21.62;35.80;94819.22;5047878;28;20124;-71
2021/10/17 10:08:04;;;;;;;15.18;13.57;;;;;;;21.61;35.96;94811.56;5050096;28;20045;-67
2021/10/17 10:10:32;;;;;;;15.40;12.80;;;;;;;21.62;35.44;94805.13;5051676;28;20056;-68
2021/10/17 10:13:02;;;;;;;15.93;13.10;;;;;;;21.45;36.08;94808.91;5051148;28;20339;-60
2021/10/17 10:15:31;;;;;;;13.30;12.00;;;;;;;21.24;36.65;94809.16;5033658;28;20056;-69
2021/10/17 10:17:58;;;;;;;14.13;12.63;;;;;;;21.60;35.97;94804.69;5055292;28;20061;-57
2021/10/17 10:20:27;;;;;;;15.30;13.70;;;;;;;21.77;35.83;94789.13;5050435;28;20045;-69
2021/10/17 10:22:55;;;;;;;15.00;12.57;;;;;;;21.65;36.48;94797.22;5042128;28;20052;-61
2021/10/17 10:25:22;;;;;;;12.52;11.23;;;;;;;21.70;36.10;94794.28;5044642;28;20741;-66
2021/10/17 10:27:49;;;;;;;14.27;12.40;;;;;;;21.34;35.09;94787.38;5044573;28;20053;-58
2021/10/17 10:30:20;;;;;;;12.23;10.85;;;;;;;21.90;35.66;94792.47;5044225;28;20049;-56
2021/10/17 10:33:06;;;;;;;13.27;11.75;;;;;;;21.72;35.56;94785.97;5043864;28;20049;-59
2021/10/17 10:35:34;;;;;;;12.70;11.27;;;;;;;21.49;35.66;94775.97;5052281;28;20063;-58
2021/10/17 10:38:01;;;;;;;12.25;10.73;;;;;;;21.44;35.63;94786.88;5050065;28;20357;-70
2021/10/17 10:40:29;;;;;;;10.85;9.75;;;;;;;22.72;32.15;94778.94;5041301;28;20056;-67
2021/10/17 10:42:56;;;;;;;11.50;9.75;;;;;;;22.03;34.25;94791.22;5050899;28;20049;-71
2021/10/17 10:45:33;;;;;;;14.80;11.45;;;;;;;22.17;35.15;94779.38;5046064;28;20486;-71
2021/10/17 10:48:12;;;;;;;12.18;10.90;;;;;;;22.87;32.99;94784.53;5045188;28;20044;-71
2021/10/17 10:50:45;;;;;;;11.73;10.43;;;;;;;22.56;34.13;94780.91;5044751;28;20060;-71
2021/10/17 10:53:32;;;;;;;15.02;11.73;;;;;;;22.12;34.95;94783.06;5043736;28;20383;-72
2021/10/17 10:56:00;;;;;;;13.90;11.68;;;;;;;22.50;33.94;94776.97;5028515;28;20372;-64
2021/10/17 10:58:36;;;;;;;13.10;11.18;;;;;;;22.13;34.47;94773.97;5043272;28;20045;-67
2021/10/17 11:01:04;;;;;;;13.32;11.18;;;;;;;22.44;34.05;94775.72;5045495;28;20041;-69
2021/10/17 11:03:44;;;;;;;11.95;10.75;;;;;;;23.24;31.82;94766.91;5042453;28;20045;-55
2021/10/17 11:06:11;;;;;;;14.27;11.00;;;;;;;23.54;32.66;94768.88;5044557;28;20057;-55
2021/10/17 11:08:40;;;;;;;12.15;10.30;;;;;;;23.86;31.44;94772.81;5055065;28;20052;-55
2021/10/17 11:11:08;;;;;;;11.57;9.88;;;;;;;22.54;33.41;94772.50;5054546;28;20036;-66
2021/10/17 11:13:40;;;;;;;10.50;8.57;;;;;;;22.72;33.11;94773.59;5052519;28;20060;-55
2021/10/17 11:16:08;;;;;;;;;;;;;;;22.86;33.27;94772.31;5055683;28;20438;-57
2021/10/17 11:18:39;;;;;;;8.38;7.53;;;;;;;23.64;32.11;94766.41;5044298;28;19921;-64
2021/10/17 11:21:07;;;;;;;9.05;7.75;;;;;;;23.34;30.85;94750.28;5029293;28;20057;-65
2021/10/17 11:23:37;;;;;;;9.43;8.02;;;;;;;24.20;29.98;94762.19;5045099;28;20044;-68
2021/10/17 11:26:12;;;;;;;9.07;8.15;;;;;;;24.54;29.68;94749.66;5045501;28;20060;-60
2021/10/17 11:28:46;;;;;;;8.80;7.88;;;;;;;24.15;30.69;94743.81;5047259;28;20052;-57
2021/10/17 11:31:16;;;;;;;10.13;7.80;;;;;;;23.99;31.12;94747.44;5053607;28;20108;-55
2021/10/17 11:33:44;;;;;;;9.43;8.00;;;;;;;23.19;32.81;94745.09;5038799;28;20535;-63
2021/10/17 11:36:14;;;;;;;10.77;8.82;;;;;;;23.96;31.62;94748.19;5035053;28;20053;-62